createdAt,value
2023-04-15T00:01:50.321Z,100224.48
2023-04-15T00:04:37.592Z,100226.00
2023-04-15T00:07:24.243Z,100226.46
2023-04-15T00:10:11.050Z,100229.03
2023-04-15T00:12:57.670Z,100227.64
2023-04-15T00:15:44.082Z,100229.61
2023-04-15T00:18:31.793Z,100227.33
2023-04-15T00:21:18.554Z,100223.05
2023-04-15T00:24:05.372Z,100221.39
2023-04-15T00:26:51.674Z,100216.50
2023-04-15T00:29:38.219Z,100220.19
2023-04-15T00:32:24.689Z,100217.23
2023-04-15T00:35:11.725Z,100214.99
2023-04-15T00:37:59.821Z,100218.61
2023-04-15T00:40:46.390Z,100216.38
2023-04-15T00:43:32.835Z,100216.37
2023-04-15T00:46:21.456Z,100223.55
2023-04-15T00:49:07.905Z,100228.10
2023-04-15T00:51:54.624Z,100223.13
2023-04-15T00:54:41.440Z,100226.08
2023-04-15T00:57:28.893Z,100227.58
2023-04-15T01:00:16.633Z,100227.84
2023-04-15T01:03:03.442Z,100221.77
2023-04-15T01:05:50.436Z,100226.53
2023-04-15T01:08:36.928Z,100224.61
2023-04-15T01:11:24.195Z,100227.48
2023-04-15T01:14:11.331Z,100227.88
2023-04-15T01:16:57.876Z,100223.38
2023-04-15T01:19:44.202Z,100225.64
2023-04-15T01:22:33.407Z,100223.27
2023-04-15T01:25:20.650Z,100225.44
2023-04-15T01:28:07.397Z,100222.20
2023-04-15T01:31:27.378Z,100218.65
2023-04-15T01:34:14.385Z,100219.52
2023-04-15T01:37:01.306Z,100217.70
2023-04-15T01:39:48.187Z,100215.15
2023-04-15T01:42:37.641Z,100214.33
2023-04-15T01:45:24.230Z,100214.55
2023-04-15T01:48:10.549Z,100217.02
2023-04-15T01:50:58.378Z,100210.97
2023-04-15T01:53:44.757Z,100212.70
2023-04-15T01:56:31.108Z,100213.05
2023-04-15T01:59:17.925Z,100216.20
2023-04-15T02:02:05.588Z,100209.34
2023-04-15T02:04:52.138Z,100208.14
2023-04-15T02:07:38.880Z,100210.30
2023-04-15T02:10:25.738Z,100218.98
2023-04-15T02:13:12.224Z,100217.16
2023-04-15T02:15:59.820Z,100215.95
2023-04-15T02:18:47.125Z,100217.98
2023-04-15T02:21:33.414Z,100214.77
2023-04-15T02:24:19.830Z,100216.25
2023-04-15T02:27:06.337Z,100215.83
2023-04-15T02:29:53.084Z,100215.88
2023-04-15T02:32:40.861Z,100211.92
2023-04-15T02:35:27.825Z,100220.14
2023-04-15T02:38:16.805Z,100218.05
2023-04-15T02:41:03.656Z,100219.66
2023-04-15T02:43:50.328Z,100219.31
2023-04-15T02:46:37.298Z,100217.35
2023-04-15T02:49:25.264Z,100218.77
2023-04-15T02:52:11.675Z,100214.36
2023-04-15T02:55:00.824Z,100218.05
2023-04-15T02:57:47.239Z,100209.70
2023-04-15T03:00:33.652Z,100214.32
2023-04-15T03:03:20.474Z,100215.39
2023-04-15T03:06:07.083Z,100215.89
2023-04-15T03:08:54.061Z,100210.17
2023-04-15T03:11:42.248Z,100215.02
2023-04-15T03:14:29.628Z,100213.11
2023-04-15T03:17:16.556Z,100214.73
2023-04-15T03:20:05.810Z,100212.93
2023-04-15T03:22:52.811Z,100217.09
2023-04-15T03:25:40.631Z,100218.10
2023-04-15T03:28:27.388Z,100218.33
2023-04-15T03:31:15.563Z,100217.66
2023-04-15T03:34:02.508Z,100214.17
2023-04-15T03:36:49.213Z,100216.23
2023-04-15T03:39:35.815Z,100222.42
2023-04-15T03:42:22.279Z,100219.73
2023-04-15T03:45:10.030Z,100219.02
2023-04-15T03:48:03.608Z,100219.05
2023-04-15T03:50:58.209Z,100218.63
2023-04-15T03:53:44.822Z,100215.73
2023-04-15T03:56:31.419Z,100219.98
2023-04-15T03:59:17.923Z,100222.34
2023-04-15T04:02:04.620Z,100219.02
2023-04-15T04:04:51.966Z,100226.19
2023-04-15T04:07:38.869Z,100227.32
2023-04-15T04:10:25.775Z,100226.37
2023-04-15T04:13:12.275Z,100226.27
2023-04-15T04:15:58.870Z,100228.57
2023-04-15T04:18:45.112Z,100230.31
2023-04-15T04:21:34.204Z,100227.84
2023-04-15T04:24:20.738Z,100226.10
2023-04-15T04:27:07.444Z,100232.22
2023-04-15T04:29:54.095Z,100232.27
2023-04-15T04:32:40.914Z,100232.84
2023-04-15T04:35:27.512Z,100230.00
2023-04-15T04:38:13.880Z,100236.91
2023-04-15T04:41:00.741Z,100234.30
2023-04-15T04:43:47.252Z,100233.19
2023-04-15T04:46:33.996Z,100234.48
2023-04-15T04:49:20.542Z,100232.04
2023-04-15T04:52:07.268Z,100233.33
2023-04-15T04:54:53.632Z,100235.63
2023-04-15T04:57:40.424Z,100237.30
2023-04-15T05:00:26.896Z,100240.46
2023-04-15T05:03:13.404Z,100236.39
2023-04-15T05:06:00.788Z,100239.24
2023-04-15T05:08:47.141Z,100239.62
2023-04-15T05:11:33.762Z,100238.23
2023-04-15T05:14:21.130Z,100239.83
2023-04-15T05:17:09.091Z,100242.40
2023-04-15T05:19:55.403Z,100238.78
2023-04-15T05:22:42.248Z,100235.33
2023-04-15T05:25:29.274Z,100237.47
2023-04-15T05:28:15.807Z,100242.16
2023-04-15T05:31:02.756Z,100243.36
2023-04-15T05:33:49.347Z,100242.83
2023-04-15T05:36:36.853Z,100245.55
2023-04-15T05:39:23.380Z,100245.39
2023-04-15T05:42:09.803Z,100247.06
2023-04-15T05:44:56.399Z,100250.77
2023-04-15T05:47:43.210Z,100252.14
2023-04-15T05:50:29.620Z,100252.48
2023-04-15T05:53:15.927Z,100255.55
2023-04-15T05:56:02.530Z,100252.74
2023-04-15T05:58:49.309Z,100247.02
2023-04-15T06:01:36.207Z,100261.31
2023-04-15T06:04:23.016Z,100265.92
2023-04-15T06:07:10.354Z,100264.67
2023-04-15T06:09:57.607Z,100266.52
2023-04-15T06:12:44.288Z,100270.70
2023-04-15T06:15:31.747Z,100269.39
2023-04-15T06:18:18.755Z,100270.73
2023-04-15T06:21:05.992Z,100274.50
2023-04-15T06:23:53.294Z,100278.95
2023-04-15T06:26:40.025Z,100279.42
2023-04-15T06:29:26.733Z,100279.69
2023-04-15T06:32:13.453Z,100284.65
2023-04-15T06:35:00.455Z,100280.88
2023-04-15T06:37:46.967Z,100280.85
2023-04-15T06:40:33.632Z,100288.04
2023-04-15T06:43:20.917Z,100288.27
2023-04-15T06:46:07.725Z,100289.93
2023-04-15T06:48:54.049Z,100290.48
2023-04-15T06:51:42.750Z,100297.40
2023-04-15T06:54:29.520Z,100294.59
2023-04-15T06:57:16.184Z,100300.59
2023-04-15T07:00:05.804Z,100299.59
2023-04-15T07:02:52.935Z,100302.76
2023-04-15T07:05:39.677Z,100304.42
2023-04-15T07:08:26.538Z,100308.30
2023-04-15T07:11:13.151Z,100307.88
2023-04-15T07:13:59.717Z,100310.38
2023-04-15T07:16:46.248Z,100313.39
2023-04-15T07:19:33.078Z,100313.69
2023-04-15T07:22:19.743Z,100317.12
2023-04-15T07:25:07.571Z,100316.11
2023-04-15T07:27:54.265Z,100316.29
2023-04-15T07:30:40.681Z,100320.02
2023-04-15T07:33:27.337Z,100318.63
2023-04-15T07:36:14.142Z,100319.38
2023-04-15T07:39:03.536Z,100320.98
2023-04-15T07:41:50.438Z,100321.29
2023-04-15T07:44:37.534Z,100323.55
2023-04-15T07:47:24.195Z,100326.08
2023-04-15T07:50:11.603Z,100328.40
2023-04-15T07:52:58.518Z,100330.34
2023-04-15T07:55:45.368Z,100331.17
2023-04-15T07:58:31.693Z,100332.65
2023-04-15T08:01:18.538Z,100328.02
2023-04-15T08:04:05.561Z,100337.02
2023-04-15T08:06:52.699Z,100339.41
2023-04-15T08:09:39.541Z,100336.92
2023-04-15T08:12:26.427Z,100339.23
2023-04-15T08:15:13.580Z,100340.29
2023-04-15T08:18:03.050Z,100343.60
2023-04-15T08:20:49.640Z,100342.21
2023-04-15T08:23:36.293Z,100338.08
2023-04-15T08:26:22.975Z,100349.58
2023-04-15T08:29:10.061Z,100338.10
2023-04-15T08:31:56.985Z,100347.80
2023-04-15T08:34:44.877Z,100346.51
2023-04-15T08:37:31.278Z,100345.41
2023-04-15T08:40:18.158Z,100347.45
2023-04-15T08:43:06.112Z,100350.86
2023-04-15T08:45:53.071Z,100349.96
2023-04-15T08:48:40.792Z,100350.40
2023-04-15T08:51:29.859Z,100355.36
2023-04-15T08:54:16.492Z,100359.86
2023-04-15T08:57:04.020Z,100357.52
2023-04-15T08:59:51.106Z,100354.19
2023-04-15T09:02:37.779Z,100356.01
2023-04-15T09:05:24.507Z,100360.05
2023-04-15T09:08:11.305Z,100361.52
2023-04-15T09:10:58.054Z,100360.64
2023-04-15T09:13:44.572Z,100361.92
2023-04-15T09:16:31.903Z,100359.38
2023-04-15T09:19:23.206Z,100366.70
2023-04-15T09:22:09.906Z,100361.23
2023-04-15T09:24:56.341Z,100362.04
2023-04-15T09:27:54.103Z,100360.57
2023-04-15T09:30:46.644Z,100365.98
2023-04-15T09:33:33.399Z,100349.57
2023-04-15T09:36:19.925Z,100356.80
2023-04-15T09:39:07.196Z,100358.52
2023-04-15T09:42:07.668Z,100349.27
2023-04-15T09:44:54.175Z,100357.25
2023-04-15T09:47:41.383Z,100359.05
2023-04-15T09:50:32.189Z,100364.24
2023-04-15T09:53:20.625Z,100365.14
2023-04-15T09:56:11.108Z,100365.38
2023-04-15T09:58:59.176Z,100368.09
2023-04-15T10:01:46.534Z,100367.88
2023-04-15T10:04:36.662Z,100363.97
2023-04-15T10:07:23.966Z,100359.79
2023-04-15T10:10:11.532Z,100368.69
2023-04-15T10:12:58.007Z,100365.77
2023-04-15T10:15:47.517Z,100360.48
2023-04-15T10:18:38.133Z,100363.99
2023-04-15T10:21:24.881Z,100370.04
2023-04-15T10:24:12.371Z,100369.10
2023-04-15T10:27:00.635Z,100369.88
2023-04-15T10:29:49.509Z,100369.61
2023-04-15T10:32:37.257Z,100364.89
2023-04-15T10:35:24.591Z,100370.70
2023-04-15T10:38:33.793Z,100366.36
2023-04-15T10:41:26.934Z,100372.82
2023-04-15T10:44:13.723Z,100376.52
2023-04-15T10:47:00.660Z,100373.83
2023-04-15T10:49:50.506Z,100373.91
2023-04-15T10:52:44.126Z,100373.06
2023-04-15T10:55:34.735Z,100379.76
2023-04-15T10:58:26.224Z,100379.65
2023-04-15T11:01:13.550Z,100378.89
2023-04-15T11:04:00.030Z,100378.69
2023-04-15T11:06:46.611Z,100380.14
2023-04-15T11:09:34.601Z,100380.97
2023-04-15T11:12:21.837Z,100390.91
2023-04-15T11:15:33.614Z,100390.95
2023-04-15T11:18:22.994Z,100387.27
2023-04-15T11:21:09.774Z,100388.05
2023-04-15T11:23:56.758Z,100391.91
2023-04-15T11:26:43.356Z,100395.11
2023-04-15T11:29:33.298Z,100386.63
2023-04-15T11:32:21.700Z,100397.15
2023-04-15T11:35:08.174Z,100403.14
2023-04-15T11:37:55.863Z,100401.00
2023-04-15T11:40:46.224Z,100399.79
2023-04-15T11:43:35.423Z,100403.13
2023-04-15T11:46:23.091Z,100403.52
2023-04-15T11:49:09.677Z,100401.61
2023-04-15T11:51:56.365Z,100403.05
2023-04-15T11:54:42.976Z,100407.66
2023-04-15T11:57:32.524Z,100405.98
2023-04-15T12:00:20.997Z,100407.82
2023-04-15T12:03:18.923Z,100406.33
2023-04-15T12:06:20.690Z,100410.89
2023-04-15T12:09:06.982Z,100417.37
2023-04-15T12:11:58.289Z,100417.48
2023-04-15T12:14:44.932Z,100419.16
2023-04-15T12:17:31.754Z,100416.27
2023-04-15T12:20:45.368Z,100422.18
2023-04-15T12:23:31.838Z,100423.98
2023-04-15T12:26:29.661Z,100426.09
2023-04-15T12:29:17.464Z,100425.90
2023-04-15T12:32:06.005Z,100429.26
2023-04-15T12:34:56.847Z,100430.04
2023-04-15T12:37:43.176Z,100432.02
2023-04-15T12:40:29.911Z,100433.19
2023-04-15T12:43:16.710Z,100434.43
2023-04-15T12:46:02.950Z,100432.40
2023-04-15T12:48:52.039Z,100427.90
2023-04-15T12:51:38.096Z,100437.46
2023-04-15T12:54:24.390Z,100436.42
2023-04-15T12:57:11.199Z,100437.09
2023-04-15T12:59:57.809Z,100434.38
2023-04-15T13:02:44.928Z,100439.48
2023-04-15T13:05:31.780Z,100440.93
2023-04-15T13:08:19.438Z,100443.39
2023-04-15T13:11:06.057Z,100442.64
2023-04-15T13:13:52.971Z,100438.02
2023-04-15T13:16:39.864Z,100444.09
2023-04-15T13:19:26.971Z,100449.02
2023-04-15T13:22:15.147Z,100450.11
2023-04-15T13:25:01.339Z,100443.40
2023-04-15T13:27:48.218Z,100450.38
2023-04-15T13:30:37.593Z,100452.20
2023-04-15T13:33:23.927Z,100459.75
2023-04-15T13:36:10.437Z,100458.15
2023-04-15T13:38:57.813Z,100448.38
2023-04-15T13:41:44.289Z,100460.92
2023-04-15T13:44:30.857Z,100452.19
2023-04-15T13:47:19.782Z,100456.72
2023-04-15T13:50:07.075Z,100456.67
2023-04-15T13:52:53.422Z,100459.80
2023-04-15T13:55:43.234Z,100462.59
2023-04-15T13:58:29.466Z,100463.27
2023-04-15T14:01:16.435Z,100464.41
2023-04-15T14:04:03.168Z,100461.98
2023-04-15T14:06:51.028Z,100463.95
2023-04-15T14:09:43.002Z,100467.14
2023-04-15T14:12:29.966Z,100468.20
2023-04-15T14:15:16.342Z,100469.59
2023-04-15T14:18:02.736Z,100472.30
2023-04-15T14:20:49.460Z,100471.58
2023-04-15T14:23:36.136Z,100475.52
2023-04-15T14:26:22.336Z,100476.45
2023-04-15T14:29:08.728Z,100476.45
2023-04-15T14:32:07.678Z,100476.25
2023-04-15T14:34:59.117Z,100479.05
2023-04-15T14:37:45.753Z,100479.59
2023-04-15T14:40:33.832Z,100481.88
2023-04-15T14:43:21.407Z,100484.64
2023-04-15T14:46:08.612Z,100488.70
2023-04-15T14:48:55.003Z,100491.17
2023-04-15T14:51:41.888Z,100493.30
2023-04-15T14:54:28.309Z,100487.05
2023-04-15T14:57:15.533Z,100497.33
2023-04-15T15:00:03.021Z,100499.46
2023-04-15T15:02:49.739Z,100498.64
2023-04-15T15:05:36.537Z,100498.19
2023-04-15T15:08:23.271Z,100504.33
2023-04-15T15:11:10.070Z,100506.30
2023-04-15T15:13:57.069Z,100509.21
2023-04-15T15:16:44.180Z,100508.94
2023-04-15T15:19:30.906Z,100512.08
2023-04-15T15:22:19.422Z,100515.09
2023-04-15T15:25:07.656Z,100516.44
2023-04-15T15:27:53.915Z,100523.49
2023-04-15T15:30:40.248Z,100519.67
2023-04-15T15:33:28.582Z,100525.23
2023-04-15T15:36:16.351Z,100522.83
2023-04-15T15:39:04.945Z,100530.48
2023-04-15T15:41:52.051Z,100531.88
2023-04-15T15:44:38.934Z,100535.23
2023-04-15T15:47:28.708Z,100536.58
2023-04-15T15:50:15.483Z,100540.80
2023-04-15T15:53:01.737Z,100542.16
2023-04-15T15:55:48.428Z,100543.29
2023-04-15T15:58:34.866Z,100544.22
2023-04-15T16:01:21.996Z,100546.89
2023-04-15T16:04:08.404Z,100551.29
2023-04-15T16:06:55.340Z,100544.08
2023-04-15T16:09:42.659Z,100550.00
2023-04-15T16:12:28.983Z,100550.42
2023-04-15T16:15:15.721Z,100553.93
2023-04-15T16:18:02.265Z,100546.61
2023-04-15T16:20:49.014Z,100550.28
2023-04-15T16:23:37.008Z,100553.07
2023-04-15T16:26:24.062Z,100555.02
2023-04-15T16:29:10.259Z,100563.22
2023-04-15T16:31:56.931Z,100571.52
2023-04-15T16:34:43.901Z,100573.73
2023-04-15T16:37:32.874Z,100576.91
2023-04-15T16:40:19.499Z,100578.15
2023-04-15T16:43:08.196Z,100579.83
2023-04-15T16:45:54.752Z,100581.05
2023-04-15T16:48:41.080Z,100588.20
2023-04-15T16:51:30.531Z,100591.71
2023-04-15T16:54:17.064Z,100595.43
2023-04-15T16:57:04.067Z,100595.55
2023-04-15T16:59:51.559Z,100593.70
2023-04-15T17:02:38.187Z,100598.85
2023-04-15T17:05:25.219Z,100602.13
2023-04-15T17:08:11.926Z,100603.63
2023-04-15T17:10:58.842Z,100609.79
2023-04-15T17:13:45.851Z,100612.07
2023-04-15T17:16:32.759Z,100612.42
2023-04-15T17:19:18.979Z,100616.57
2023-04-15T17:22:05.655Z,100614.09
2023-04-15T17:24:52.367Z,100617.37
2023-04-15T17:27:38.766Z,100617.99
2023-04-15T17:30:25.600Z,100620.31
2023-04-15T17:33:57.393Z,100625.91
2023-04-15T17:36:18.763Z,100630.19
2023-04-15T17:39:05.718Z,100635.86
2023-04-15T17:41:52.330Z,100639.83
2023-04-15T17:44:38.712Z,100640.09
2023-04-15T17:47:25.302Z,100640.94
2023-04-15T17:50:11.742Z,100644.73
2023-04-15T17:52:58.464Z,100648.46
2023-04-15T17:55:45.607Z,100652.05
2023-04-15T17:58:31.911Z,100650.50
2023-04-15T18:01:18.709Z,100653.02
2023-04-15T18:04:05.945Z,100658.66
2023-04-15T18:06:52.835Z,100656.02
2023-04-15T18:09:39.577Z,100670.28
2023-04-15T18:12:25.965Z,100673.66
2023-04-15T18:15:14.515Z,100679.35
2023-04-15T18:18:01.176Z,100682.80
2023-04-15T18:20:47.802Z,100683.63
2023-04-15T18:23:34.513Z,100697.49
2023-04-15T18:26:22.065Z,100701.33
2023-04-15T18:29:08.952Z,100702.14
2023-04-15T18:31:56.054Z,100699.96
2023-04-15T18:34:43.029Z,100707.45
2023-04-15T18:37:29.485Z,100705.71
2023-04-15T18:40:16.290Z,100706.33
2023-04-15T18:43:02.628Z,100708.46
2023-04-15T18:45:49.297Z,100712.49
2023-04-15T18:48:35.938Z,100714.44
2023-04-15T18:51:22.720Z,100716.38
2023-04-15T18:54:09.273Z,100716.23
2023-04-15T18:56:56.518Z,100718.02
2023-04-15T18:59:43.542Z,100719.95
2023-04-15T19:02:30.076Z,100723.08
2023-04-15T19:05:16.646Z,100724.10
2023-04-15T19:08:02.908Z,100727.70
2023-04-15T19:10:50.074Z,100729.33
2023-04-15T19:13:36.460Z,100736.89
2023-04-15T19:16:23.011Z,100734.57
2023-04-15T19:19:10.188Z,100737.04
2023-04-15T19:21:57.706Z,100741.48
2023-04-15T19:24:46.859Z,100743.02
2023-04-15T19:27:33.194Z,100745.95
2023-04-15T19:30:21.418Z,100750.37
2023-04-15T19:33:07.832Z,100753.89
2023-04-15T19:35:54.636Z,100752.30
2023-04-15T19:38:41.029Z,100736.56
2023-04-15T19:41:28.048Z,100751.40
2023-04-15T19:44:15.026Z,100753.67
2023-04-15T19:47:01.868Z,100756.70
2023-04-15T19:49:49.491Z,100757.83
2023-04-15T19:52:37.967Z,100759.69
2023-04-15T19:55:24.534Z,100765.98
2023-04-15T19:58:11.457Z,100768.09
2023-04-15T20:00:58.572Z,100770.63
2023-04-15T20:03:45.027Z,100772.17
2023-04-15T20:06:31.946Z,100774.66
2023-04-15T20:09:18.310Z,100771.73
2023-04-15T20:12:49.414Z,100779.64
2023-04-15T20:15:12.221Z,100782.01
2023-04-15T20:17:59.060Z,100782.35
2023-04-15T20:20:46.379Z,100784.48
2023-04-15T20:23:32.892Z,100786.98
2023-04-15T20:26:19.727Z,100787.11
2023-04-15T20:29:06.490Z,100791.66
2023-04-15T20:31:53.332Z,100792.58
2023-04-15T20:34:43.071Z,100792.20
2023-04-15T20:37:30.994Z,100798.05
2023-04-15T20:40:17.305Z,100796.25
2023-04-15T20:43:03.607Z,100801.18
2023-04-15T20:45:50.838Z,100803.14
2023-04-15T20:48:37.423Z,100803.66
2023-04-15T20:51:24.085Z,100803.80
2023-04-15T20:54:11.082Z,100807.35
2023-04-15T20:56:58.219Z,100803.28
2023-04-15T20:59:44.394Z,100809.74
2023-04-15T21:02:31.540Z,100813.45
2023-04-15T21:05:18.113Z,100816.77
2023-04-15T21:08:04.341Z,100822.06
2023-04-15T21:10:51.202Z,100823.08
2023-04-15T21:13:37.976Z,100826.70
2023-04-15T21:16:24.670Z,100830.39
2023-04-15T21:19:11.022Z,100831.05
2023-04-15T21:21:57.427Z,100829.48
2023-04-15T21:24:43.676Z,100834.96
2023-04-15T21:27:30.682Z,100834.51
2023-04-15T21:30:17.264Z,100840.19
2023-04-15T21:33:04.161Z,100844.14
2023-04-15T21:35:51.336Z,100845.75
2023-04-15T21:38:38.170Z,100848.16
2023-04-15T21:41:24.748Z,100851.84
2023-04-15T21:44:13.986Z,100854.27
2023-04-15T21:47:02.105Z,100852.25
2023-04-15T21:49:48.823Z,100855.71
2023-04-15T21:52:35.597Z,100855.77
2023-04-15T21:55:22.324Z,100856.92
2023-04-15T21:58:08.643Z,100859.56
2023-04-15T22:01:00.088Z,100864.02
2023-04-15T22:03:46.962Z,100867.23
2023-04-15T22:06:33.842Z,100873.29
2023-04-15T22:09:20.646Z,100872.76
2023-04-15T22:12:07.469Z,100877.39
2023-04-15T22:14:55.759Z,100878.16
2023-04-15T22:17:43.024Z,100884.80
2023-04-15T22:20:29.673Z,100885.91
2023-04-15T22:23:17.510Z,100890.55
2023-04-15T22:26:05.493Z,100896.72
2023-04-15T22:28:51.881Z,100896.26
2023-04-15T22:31:38.318Z,100898.17
2023-04-15T22:34:24.647Z,100899.23
2023-04-15T22:37:11.809Z,100899.54
2023-04-15T22:39:59.054Z,100899.19
2023-04-15T22:42:46.258Z,100899.63
2023-04-15T22:45:32.900Z,100902.68
2023-04-15T22:48:19.328Z,100902.23
2023-04-15T22:51:06.422Z,100907.98
2023-04-15T22:53:53.277Z,100908.27
2023-04-15T22:56:39.791Z,100911.46
2023-04-15T22:59:26.174Z,100912.09
2023-04-15T23:02:13.131Z,100913.91
2023-04-15T23:05:00.164Z,100911.95
2023-04-15T23:07:49.968Z,100916.99
2023-04-15T23:10:36.620Z,100918.96
2023-04-15T23:13:23.150Z,100918.57
2023-04-15T23:16:09.760Z,100920.62
2023-04-15T23:18:56.180Z,100918.48
2023-04-15T23:21:42.680Z,100920.02
2023-04-15T23:24:29.246Z,100918.81
2023-04-15T23:27:17.705Z,100923.23
2023-04-15T23:30:05.303Z,100918.63
2023-04-15T23:32:51.858Z,100922.45
2023-04-15T23:35:38.351Z,100920.41
2023-04-15T23:38:24.832Z,100919.09
2023-04-15T23:41:12.185Z,100923.13
2023-04-15T23:43:58.843Z,100926.08
2023-04-15T23:46:45.687Z,100922.45
2023-04-15T23:49:32.136Z,100925.65
2023-04-15T23:52:19.161Z,100928.04
2023-04-15T23:55:06.803Z,100929.91
2023-04-15T23:57:53.402Z,100930.58
